Time;durP1;ratioP1;P1;durP2;ratioP2;P2;SDS_P1;SDS_P2;PMS_P1;PMS_P2;Temp;Humidity;BMP_temperature;BMP_pressure;BME280_temperature;BME280_humidity;BME280_pressure;Samples;Min_cycle;Max_cycle;Signal;HPM_P1;HPM_P2
2022/05/18 00:00:28;;;;;;;16.48;11.43;;;;;;;14.98;53.59;102042.94;5003655;28;20033;-77
2022/05/18 00:03:03;;;;;;;14.13;11.75;;;;;;;15.02;53.83;102035.78;4963510;28;20757;-80
2022/05/18 00:05:29;;;;;;;13.77;11.45;;;;;;;15.03;53.60;102040.97;4995801;28;20033;-78
2022/05/18 00:07:55;;;;;;;14.48;11.60;;;;;;;14.97;54.11;102041.22;4964894;28;20046;-78
2022/05/18 00:10:20;;;;;;;18.92;12.57;;;;;;;14.99;54.05;102036.72;4986516;28;20440;-78
2022/05/18 00:12:48;;;;;;;16.33;12.85;;;;;;;15.03;54.17;102035.69;4994717;28;20488;-78
2022/05/18 00:15:17;;;;;;;17.77;12.65;;;;;;;15.00;54.07;102038.47;4997216;28;20045;-78
2022/05/18 00:17:43;;;;;;;15.27;11.57;;;;;;;15.14;53.84;102045.78;4979826;28;20076;-77
2022/05/18 00:20:10;;;;;;;18.35;13.25;;;;;;;14.99;54.13;102044.63;4982147;28;20222;-77
2022/05/18 00:22:52;;;;;;;20.80;12.70;;;;;;;15.16;53.63;102047.44;4963184;28;20050;-77
2022/05/18 00:25:23;;;;;;;14.80;11.63;;;;;;;15.10;53.98;102052.09;5003064;28;20042;-79
2022/05/18 00:27:49;;;;;;;19.00;12.68;;;;;;;15.16;53.78;102047.44;4965547;28;20039;-77
2022/05/18 00:30:18;;;;;;;18.10;12.60;;;;;;;14.98;54.30;102043.78;5003474;28;20103;-79
2022/05/18 00:32:44;;;;;;;17.77;12.80;;;;;;;15.15;53.86;102040.47;4965721;28;20447;-80
2022/05/18 00:35:10;;;;;;;15.68;12.85;;;;;;;15.05;54.20;102041.75;4962849;28;20993;-76
2022/05/18 00:37:37;;;;;;;16.65;12.75;;;;;;;14.98;54.17;102053.47;4972886;28;20046;-78
2022/05/18 00:40:04;;;;;;;16.10;11.55;;;;;;;15.18;53.74;102053.50;4981727;28;20492;-77
2022/05/18 00:42:29;;;;;;;16.17;12.88;;;;;;;15.21;53.80;102044.63;4966195;28;20034;-79
2022/05/18 00:44:55;;;;;;;16.15;12.60;;;;;;;15.09;53.82;102048.63;4965523;28;20037;-77
2022/05/18 00:47:21;;;;;;;19.30;12.35;;;;;;;15.07;54.13;102045.19;4974481;28;20030;-76
2022/05/18 00:50:02;;;;;;;18.42;11.45;;;;;;;15.08;53.91;102046.03;4998153;28;20401;-77
2022/05/18 00:52:35;;;;;;;17.10;12.45;;;;;;;15.19;53.70;102046.47;4967726;28;20042;-77
2022/05/18 00:55:02;;;;;;;21.33;13.68;;;;;;;15.23;53.67;102049.88;5002038;28;20715;-78
2022/05/18 00:57:35;;;;;;;14.20;11.88;;;;;;;15.18;53.62;102044.75;4982226;28;20124;-79
2022/05/18 01:00:08;;;;;;;19.73;13.30;;;;;;;15.12;53.68;102043.22;4998389;28;20101;-79
2022/05/18 01:02:36;;;;;;;17.92;13.20;;;;;;;15.09;53.59;102045.13;4966730;28;20042;-78
2022/05/18 01:05:05;;;;;;;16.48;12.40;;;;;;;15.02;53.82;102041.03;4970117;28;20184;-78
2022/05/18 01:07:36;;;;;;;23.45;13.55;;;;;;;14.96;54.10;102039.50;4998650;28;20034;-77
2022/05/18 01:10:04;;;;;;;20.42;12.95;;;;;;;15.02;54.09;102044.53;4970984;28;20042;-77
2022/05/18 01:12:29;;;;;;;16.25;11.38;;;;;;;15.03;53.96;102040.97;4970533;28;20022;-78
2022/05/18 01:14:58;;;;;;;16.38;11.90;;;;;;;14.75;54.76;102042.06;4996851;28;20969;-78
2022/05/18 01:17:28;;;;;;;20.15;13.45;;;;;;;14.97;54.03;102035.97;4970835;28;20111;-79
2022/05/18 01:19:55;;;;;;;19.38;13.40;;;;;;;14.92;54.25;102032.63;4996741;28;20038;-77
2022/05/18 01:22:42;;;;;;;15.18;12.32;;;;;;;14.80;54.70;102041.03;4965868;28;20090;-77
2022/05/18 01:25:13;;;;;;;15.05;12.30;;;;;;;14.74;54.72;102042.97;4979768;28;20034;-76
2022/05/18 01:27:39;;;;;;;16.05;12.15;;;;;;;14.73;54.88;102043.91;4999210;28;20045;-77
2022/05/18 01:30:07;;;;;;;21.05;13.45;;;;;;;14.79;54.57;102047.22;4983649;28;20034;-76
2022/05/18 01:32:47;;;;;;;20.17;14.05;;;;;;;;;;4965078;28;20496;-76
2022/05/18 01:35:19;;;;;;;17.90;12.35;;;;;;;14.77;54.83;102047.28;4978538;28;20038;-76
2022/05/18 01:37:45;;;;;;;17.58;12.18;;;;;;;14.74;54.52;102037.72;4996208;28;20537;-78
2022/05/18 01:40:17;;;;;;;19.42;12.02;;;;;;;14.73;54.68;102043.91;4984962;28;20053;-76
2022/05/18 01:42:52;;;;;;;16.52;12.32;;;;;;;14.76;54.64;102045.56;4981493;28;20129;-79
2022/05/18 01:45:17;;;;;;;15.02;11.60;;;;;;;14.84;54.34;102045.28;4971752;28;20037;-79
2022/05/18 01:47:43;;;;;;;18.50;12.43;;;;;;;14.81;54.39;102054.13;5001621;28;20058;-78
2022/05/18 01:50:12;;;;;;;20.70;13.68;;;;;;;14.85;54.28;102058.34;4983411;28;20030;-76
2022/05/18 01:52:39;;;;;;;16.10;11.90;;;;;;;14.79;54.44;102052.47;4966484;28;20141;-78
2022/05/18 01:55:06;;;;;;;15.18;12.02;;;;;;;14.80;54.22;102048.94;4968066;28;20022;-80
2022/05/18 01:57:34;;;;;;;18.33;11.60;;;;;;;14.84;54.12;102061.06;5002332;28;20057;-77
2022/05/18 02:00:00;;;;;;;14.70;12.18;;;;;;;14.60;54.77;102047.94;4966604;28;20455;-79
2022/05/18 02:02:26;;;;;;;15.18;11.57;;;;;;;14.81;54.22;102046.22;4968511;28;20125;-78
2022/05/18 02:04:51;;;;;;;22.02;12.40;;;;;;;14.92;54.01;102048.44;4965916;28;20037;-79
2022/05/18 02:07:17;;;;;;;15.55;11.38;;;;;;;14.81;54.18;102050.63;4999463;28;20022;-80
2022/05/18 02:09:43;;;;;;;17.25;12.40;;;;;;;14.86;54.19;102054.81;4990836;28;20057;-81
2022/05/18 02:12:10;;;;;;;15.75;11.18;;;;;;;14.80;54.38;102055.06;4966996;28;20030;-76
2022/05/18 02:14:36;;;;;;;15.95;11.23;;;;;;;14.70;54.57;102051.03;4969935;28;20657;-78
2022/05/18 02:17:02;;;;;;;21.42;12.88;;;;;;;14.81;54.29;102050.63;4965660;28;20039;-78
2022/05/18 02:19:28;;;;;;;14.73;11.75;;;;;;;14.72;54.54;102050.09;4983958;28;20129;-78
2022/05/18 02:21:53;;;;;;;15.70;10.48;;;;;;;14.92;54.12;102048.44;5000498;28;20676;-80
2022/05/18 02:24:19;;;;;;;16.08;11.32;;;;;;;14.80;54.36;102043.69;4981832;28;20050;-79
2022/05/18 02:26:44;;;;;;;15.68;11.70;;;;;;;14.77;54.26;102045.50;4982112;28;20030;-78
2022/05/18 02:29:10;;;;;;;21.15;11.40;;;;;;;14.61;54.95;102038.25;4984475;28;20042;-77
2022/05/18 02:31:36;;;;;;;15.93;11.80;;;;;;;14.69;54.76;102037.03;4982076;28;20062;-79
2022/05/18 02:34:02;;;;;;;16.48;10.82;;;;;;;14.54;54.99;102032.38;4962754;28;20050;-78
2022/05/18 02:36:28;;;;;;;15.32;10.65;;;;;;;14.68;54.85;102032.72;5000945;28;20571;-79
2022/05/18 02:38:54;;;;;;;15.38;10.65;;;;;;;14.73;54.62;102033.38;4985182;28;20061;-80
2022/05/18 02:41:20;;;;;;;14.98;10.52;;;;;;;14.75;54.33;102031.53;4968794;28;20038;-78
2022/05/18 02:43:46;;;;;;;16.35;10.30;;;;;;;14.65;54.67;102022.28;4962515;28;20666;-78
2022/05/18 02:46:14;;;;;;;15.73;11.02;;;;;;;14.63;54.79;102021.47;4963054;28;20045;-77
2022/05/18 02:48:41;;;;;;;14.93;10.27;;;;;;;14.62;54.75;102029.47;4983024;28;20118;-79
2022/05/18 02:51:08;;;;;;;12.85;10.32;;;;;;;14.74;54.18;102018.44;4965765;28;20092;-77
2022/05/18 02:53:34;;;;;;;15.85;10.82;;;;;;;14.71;54.37;102026.47;4979509;28;20054;-77
2022/05/18 02:56:06;;;;;;;24.40;10.23;;;;;;;14.51;54.93;102019.34;4996359;28;20572;-77
2022/05/18 02:58:43;;;;;;;12.85;10.10;;;;;;;14.51;54.95;102021.97;4995372;28;20057;-77
2022/05/18 03:01:15;;;;;;;15.23;10.35;;;;;;;14.51;54.93;102016.72;4966045;28;20042;-77
2022/05/18 03:03:41;;;;;;;16.10;10.27;;;;;;;14.65;54.37;102008.28;4995996;28;20046;-77
2022/05/18 03:06:09;;;;;;;16.17;11.07;;;;;;;14.63;54.46;102015.38;4965563;28;20087;-78
2022/05/18 03:08:38;;;;;;;15.77;10.40;;;;;;;14.55;54.70;102013.06;4962486;28;20039;-78
2022/05/18 03:11:04;;;;;;;17.35;10.80;;;;;;;14.46;55.03;102016.03;4981141;28;20042;-77
2022/05/18 03:13:29;;;;;;;14.75;10.10;;;;;;;14.54;54.56;102021.84;4981293;28;20061;-76
2022/05/18 03:15:55;;;;;;;16.10;9.57;;;;;;;14.58;54.55;102023.44;4980271;28;20038;-78
2022/05/18 03:18:21;;;;;;;14.38;10.27;;;;;;;14.67;54.33;102023.09;4966370;28;20038;-77
2022/05/18 03:23:33;;;;;;;14.05;9.93;;;;;;;14.75;54.01;102030.69;4985031;28;20436;-77
2022/05/18 03:26:08;;;;;;;18.10;9.90;;;;;;;14.70;53.85;102035.25;4982347;28;20080;-78
2022/05/18 03:28:34;;;;;;;11.15;9.25;;;;;;;14.75;53.93;102036.81;4967374;28;20069;-77
2022/05/18 03:31:00;;;;;;;15.48;11.48;;;;;;;14.68;54.06;102037.09;4963184;28;20453;-78
2022/05/18 03:33:25;;;;;;;16.08;10.10;;;;;;;14.64;54.19;102033.75;4962577;28;20248;-79
2022/05/18 03:35:51;;;;;;;14.23;10.73;;;;;;;14.60;54.74;102039.19;5002120;28;20034;-77
2022/05/18 03:38:19;;;;;;;18.20;10.45;;;;;;;14.54;54.49;102037.63;4965121;28;20030;-77
2022/05/18 03:40:44;;;;;;;15.35;9.35;;;;;;;14.52;54.70;102034.19;5000199;28;20122;-76
2022/05/18 03:43:10;;;;;;;16.35;11.02;;;;;;;14.47;54.90;102034.38;4963429;28;20884;-78
2022/05/18 03:45:37;;;;;;;16.25;9.68;;;;;;;14.46;54.96;102040.56;4985839;28;20037;-79
2022/05/18 03:48:04;;;;;;;16.63;11.35;;;;;;;14.51;54.84;102032.50;4966163;28;20149;-79
2022/05/18 03:50:30;;;;;;;13.20;10.20;;;;;;;14.47;54.99;102036.16;4986495;28;20110;-78
2022/05/18 03:52:57;;;;;;;14.75;10.77;;;;;;;14.51;55.03;102043.03;4980310;28;20046;-77
2022/05/18 03:55:24;;;;;;;15.20;11.20;;;;;;;14.49;54.84;102043.06;4998741;28;20037;-77
2022/05/18 03:57:50;;;;;;;18.42;11.07;;;;;;;14.57;55.04;102042.78;5000882;28;20124;-78
2022/05/18 04:00:16;;;;;;;16.35;11.55;;;;;;;14.52;55.12;102039.47;4988988;28;20604;-78
2022/05/18 04:02:42;;;;;;;17.42;11.88;;;;;;;14.42;55.20;102038.97;5000924;28;20054;-80
2022/05/18 04:05:10;;;;;;;16.58;11.90;;;;;;;14.53;55.25;102041.19;4981864;28;20034;-77
2022/05/18 04:07:35;;;;;;;17.40;12.02;;;;;;;14.29;55.96;102040.31;4983506;28;20097;-77
2022/05/18 04:10:01;;;;;;;17.02;11.27;;;;;;;14.49;55.35;102042.22;4986458;28;20030;-76
2022/05/18 04:12:27;;;;;;;14.68;11.20;;;;;;;14.56;55.10;102041.06;4972841;28;20026;-75
2022/05/18 04:14:54;;;;;;;16.38;11.30;;;;;;;14.53;55.13;102041.19;4986302;28;20042;-79
2022/05/18 04:17:25;;;;;;;19.75;11.48;;;;;;;14.53;55.15;102051.72;4989739;28;20049;-77
2022/05/18 04:19:51;;;;;;;17.17;12.13;;;;;;;14.51;55.01;102041.25;4966694;28;20535;-77
2022/05/18 04:22:18;;;;;;;19.20;12.40;;;;;;;14.50;55.52;102041.28;4985867;28;20061;-80
2022/05/18 04:24:43;;;;;;;18.92;12.63;;;;;;;14.25;55.88;102039.56;4971106;28;20045;-80
2022/05/18 04:27:10;;;;;;;18.10;12.60;;;;;;;14.50;55.10;102036.91;4984025;28;20034;-80
2022/05/18 04:29:37;;;;;;;16.00;13.00;;;;;;;14.45;55.54;102035.34;4984887;28;20428;-77
2022/05/18 04:32:04;;;;;;;17.15;12.77;;;;;;;14.36;55.47;102029.50;5006251;28;20104;-77
2022/05/18 04:34:30;;;;;;;18.90;11.70;;;;;;;14.55;55.18;102044.63;4968585;28;20042;-79
2022/05/18 04:36:55;;;;;;;16.17;11.35;;;;;;;14.42;54.83;102043.38;4969617;28;20040;-79
2022/05/18 04:39:21;;;;;;;15.90;10.90;;;;;;;14.67;54.70;102046.75;4973844;28;20040;-79
2022/05/18 04:41:46;;;;;;;14.57;10.95;;;;;;;14.65;54.78;102045.13;4984261;28;20082;-78
2022/05/18 04:44:12;;;;;;;19.30;10.48;;;;;;;14.74;54.27;102045.59;5005563;28;20539;-78
2022/05/18 04:46:40;;;;;;;17.80;12.18;;;;;;;14.84;54.15;102050.53;5001864;28;20183;-78
2022/05/18 04:49:06;;;;;;;21.67;12.00;;;;;;;15.01;53.70;102037.53;4966471;28;20053;-78
2022/05/18 04:51:33;;;;;;;17.20;12.00;;;;;;;15.07;53.24;102039.06;4971953;28;20473;-77
2022/05/18 04:53:58;;;;;;;14.25;10.18;;;;;;;15.25;53.12;102034.84;4968075;28;20094;-77
2022/05/18 04:56:24;;;;;;;14.05;10.10;;;;;;;15.40;52.37;102039.50;4974456;28;20128;-78
2022/05/18 04:58:51;;;;;;;14.23;10.15;;;;;;;15.65;52.26;102043.72;5000277;28;20042;-78
2022/05/18 05:01:17;;;;;;;13.23;9.48;;;;;;;16.99;49.42;102041.16;4989442;28;20157;-79
2022/05/18 05:03:43;;;;;;;13.20;8.95;;;;;;;18.15;45.67;102041.44;4965618;28;20042;-79
2022/05/18 05:06:10;;;;;;;13.00;8.57;;;;;;;18.00;45.33;102041.28;4982594;28;20054;-78
2022/05/18 05:08:36;;;;;;;13.68;9.25;;;;;;;18.26;45.00;102034.66;4983775;28;20073;-77
2022/05/18 05:11:03;;;;;;;14.65;9.18;;;;;;;18.81;43.77;102038.69;4967671;28;20046;-80
2022/05/18 05:13:28;;;;;;;12.15;9.52;;;;;;;18.61;43.73;102036.31;4976599;28;20049;-81
2022/05/18 05:16:05;;;;;;;17.63;9.98;;;;;;;17.27;46.77;102039.78;4968879;28;20037;-81
2022/05/18 05:18:32;;;;;;;14.02;9.55;;;;;;;16.72;48.33;102043.31;4969723;28;20088;-77
2022/05/18 05:20:58;;;;;;;13.40;9.98;;;;;;;17.22;47.52;102043.53;4969010;28;20173;-78
2022/05/18 05:23:24;;;;;;;13.23;9.43;;;;;;;17.98;45.73;102042.31;4968724;28;20041;-77
2022/05/18 05:25:51;;;;;;;14.25;10.45;;;;;;;17.29;46.71;102049.38;4965406;28;20721;-75
2022/05/18 05:28:17;;;;;;;14.02;9.75;;;;;;;17.39;47.46;102050.59;4968181;28;20045;-81
2022/05/18 05:30:42;;;;;;;13.30;9.00;;;;;;;17.32;47.45;102053.63;4967776;28;20034;-78
2022/05/18 05:33:08;;;;;;;16.40;10.25;;;;;;;18.58;44.97;102052.34;4967079;28;20054;-78
2022/05/18 05:35:33;;;;;;;9.63;8.35;;;;;;;20.07;41.35;102056.94;4982768;28;20022;-77
2022/05/18 05:37:59;;;;;;;11.57;8.82;;;;;;;20.69;39.17;102054.78;4978221;28;20084;-78
2022/05/18 05:40:24;;;;;;;15.30;9.27;;;;;;;21.07;38.09;102053.25;4987028;28;20038;-77
2022/05/18 05:42:50;;;;;;;16.30;9.07;;;;;;;21.61;36.73;102047.00;5002333;28;20034;-77
2022/05/18 05:45:16;;;;;;;14.40;9.20;;;;;;;22.09;36.25;102048.09;4969242;28;20093;-83
2022/05/18 05:47:41;;;;;;;13.27;9.02;;;;;;;22.61;35.39;102047.97;4965221;28;20245;-77
2022/05/18 05:50:09;;;;;;;13.35;8.55;;;;;;;22.38;35.96;102047.78;4967919;28;20398;-78
2022/05/18 05:52:34;;;;;;;12.93;7.90;;;;;;;23.31;35.11;102049.88;4969206;28;20140;-79
2022/05/18 05:55:00;;;;;;;10.15;8.25;;;;;;;23.45;33.57;102049.66;4989224;28;20258;-82
2022/05/18 05:57:26;;;;;;;13.30;8.48;;;;;;;23.43;33.46;102051.59;4965461;28;20044;-82
2022/05/18 05:59:52;;;;;;;17.38;8.95;;;;;;;23.64;33.90;102054.44;4969798;28;20037;-79
2022/05/18 06:02:19;;;;;;;9.85;8.30;;;;;;;22.85;34.73;102053.31;4983301;28;20022;-78
2022/05/18 06:04:46;;;;;;;16.60;8.23;;;;;;;23.36;34.31;102050.38;4966873;28;20594;-82
2022/05/18 06:07:13;;;;;;;12.10;8.57;;;;;;;23.06;33.87;102045.53;4982102;28;20042;-81
2022/05/18 06:09:39;;;;;;;16.33;8.55;;;;;;;23.76;33.58;102047.28;5003982;28;20046;-77
2022/05/18 06:12:06;;;;;;;11.57;8.15;;;;;;;24.60;31.62;102048.63;4983277;28;20039;-78
2022/05/18 06:14:32;;;;;;;11.82;7.80;;;;;;;24.03;32.67;102050.50;4967136;28;20038;-80
2022/05/18 06:16:57;;;;;;;17.60;10.52;;;;;;;24.27;32.26;102060.19;4969438;28;20401;-81
2022/05/18 06:19:23;;;;;;;17.85;8.98;;;;;;;24.89;31.19;102050.72;4967200;28;20169;-79
2022/05/18 06:21:50;;;;;;;8.77;7.57;;;;;;;25.44;30.64;102051.44;5005006;28;20030;-79
2022/05/18 06:24:18;;;;;;;14.60;8.50;;;;;;;26.05;29.39;102048.00;4968687;28;20042;-77
2022/05/18 06:26:44;;;;;;;8.80;6.40;;;;;;;26.41;29.17;102048.38;4965248;28;20179;-78
2022/05/18 06:29:10;;;;;;;9.40;6.18;;;;;;;26.47;28.59;102052.34;4967619;28;20930;-79
2022/05/18 06:31:36;;;;;;;9.48;6.38;;;;;;;27.13;27.76;102054.41;4973498;28;20433;-78
2022/05/18 06:34:01;;;;;;;8.23;6.63;;;;;;;26.23;28.79;102048.19;4982975;28;20038;-78
2022/05/18 06:36:28;;;;;;;7.50;5.82;;;;;;;27.16;27.53;102055.94;4985336;28;20026;-80
2022/05/18 06:38:53;;;;;;;9.18;7.13;;;;;;;27.46;27.15;102050.38;5000584;28;20038;-80
2022/05/18 06:41:22;;;;;;;11.98;6.93;;;;;;;27.77;26.85;102054.72;4964621;28;20036;-79
2022/05/18 06:43:57;;;;;;;9.48;5.88;;;;;;;28.80;27.31;102050.91;5001393;28;20069;-76
2022/05/18 06:46:24;;;;;;;8.07;5.30;;;;;;;30.45;23.81;102048.19;4979771;28;20086;-79
2022/05/18 06:48:50;;;;;;;10.05;6.28;;;;;;;29.79;24.16;102057.88;4964223;28;20129;-79
2022/05/18 06:51:28;;;;;;;10.07;5.88;;;;;;;28.87;24.17;102051.13;4982518;28;20205;-80
2022/05/18 06:53:55;;;;;;;9.45;6.47;;;;;;;27.86;25.24;102054.69;4995925;28;20053;-79
2022/05/18 06:56:23;;;;;;;5.70;5.07;;;;;;;28.74;25.93;102057.72;4969506;28;20030;-78
2022/05/18 06:58:51;;;;;;;7.47;4.25;;;;;;;28.71;24.94;102052.66;4965695;28;20124;-79
2022/05/18 07:01:17;;;;;;;11.32;4.80;;;;;;;28.86;24.46;102049.41;4967014;28;20062;-78
2022/05/18 07:03:46;;;;;;;5.72;4.43;;;;;;;29.06;24.41;102044.72;4965121;28;20492;-79
2022/05/18 07:06:13;;;;;;;7.43;4.97;;;;;;;29.06;24.67;102053.66;4965410;28;20046;-81
2022/05/18 07:08:39;;;;;;;7.30;4.43;;;;;;;29.98;23.37;102046.84;4984462;28;20033;-78
2022/05/18 07:11:06;;;;;;;6.30;4.28;;;;;;;30.07;23.40;102044.19;4968744;28;20038;-78
2022/05/18 07:13:36;;;;;;;5.95;4.38;;;;;;;28.48;24.92;102046.88;4965965;28;20166;-78
2022/05/18 07:16:03;;;;;;;7.72;4.22;;;;;;;30.22;23.01;102037.19;4966894;28;20026;-78
2022/05/18 07:18:30;;;;;;;5.80;3.58;;;;;;;30.20;22.73;102028.44;4982389;28;20050;-77
2022/05/18 07:20:57;;;;;;;7.18;3.55;;;;;;;28.87;24.07;102026.91;4965517;28;20060;-79
2022/05/18 07:23:23;;;;;;;6.10;4.20;;;;;;;28.64;24.27;102040.84;4967856;28;20050;-80
2022/05/18 07:29:19;;;;;;;7.05;3.92;;;;;;;29.79;23.15;102041.72;5006065;28;20084;-82
2022/05/18 07:34:29;;;;;;;11.93;3.17;;;;;;;30.39;24.01;102028.13;4982637;28;20049;-80
2022/05/18 07:36:55;;;;;;;10.23;3.85;;;;;;;31.47;21.43;102031.66;5002961;28;20054;-77
2022/05/18 07:39:24;;;;;;;6.60;3.67;;;;;;;30.89;22.39;102015.56;4966666;28;20498;-81
2022/05/18 07:41:51;;;;;;;4.32;3.05;;;;;;;30.59;22.73;102023.28;4961784;28;20027;-76
2022/05/18 07:44:17;;;;;;;5.10;3.78;;;;;;;29.87;23.35;102016.66;4958027;28;20049;-80
2022/05/18 07:46:43;;;;;;;7.90;3.97;;;;;;;30.12;23.32;102017.63;4966481;28;20038;-77
2022/05/18 07:49:10;;;;;;;7.07;3.13;;;;;;;29.74;23.92;102017.94;4969147;28;20689;-81
2022/05/18 07:51:36;;;;;;;8.55;2.97;;;;;;;30.72;22.67;102022.81;4978602;28;20089;-76
2022/05/18 07:54:04;;;;;;;5.53;2.92;;;;;;;31.27;22.51;102015.88;4997239;28;20042;-80
2022/05/18 07:56:33;;;;;;;6.47;2.75;;;;;;;31.34;21.39;102016.03;4997191;28;20050;-79
2022/05/18 07:58:58;;;;;;;6.32;2.47;;;;;;;32.41;20.73;102030.00;4978452;28;20046;-77
2022/05/18 08:01:24;;;;;;;4.53;2.72;;;;;;;32.95;19.51;102020.94;4985357;28;20034;-79
2022/05/18 08:03:50;;;;;;;6.95;2.78;;;;;;;33.32;20.11;102022.78;4968348;28;20050;-77
2022/05/18 08:06:15;;;;;;;3.83;2.60;;;;;;;33.35;19.17;102022.44;4968896;28;20061;-81
2022/05/18 08:08:41;;;;;;;3.88;2.50;;;;;;;33.41;19.02;102031.66;4941938;28;20050;-81
2022/05/18 08:16:37;;;;;;;6.90;3.10;;;;;;;32.94;19.31;102025.50;5002043;28;20093;-81
2022/05/18 08:19:04;;;;;;;4.38;3.20;;;;;;;31.91;20.60;102023.09;4957089;28;20058;-80
2022/05/18 08:21:29;;;;;;;5.57;3.45;;;;;;;31.72;21.23;102021.69;4971716;28;20073;-77
2022/05/18 08:23:55;;;;;;;4.65;3.13;;;;;;;32.11;21.03;102023.53;4994182;28;20069;-79
2022/05/18 08:26:45;;;;;;;4.30;2.50;;;;;;;32.73;20.23;102031.59;4949493;28;20057;-80
2022/05/18 08:29:12;;;;;;;4.82;3.00;;;;;;;32.49;20.18;102021.78;4970069;28;20050;-78
2022/05/18 08:31:37;;;;;;;6.90;3.13;;;;;;;32.20;20.50;102034.13;4969414;28;20393;-77
2022/05/18 08:34:03;;;;;;;10.15;4.55;;;;;;;32.64;20.13;102024.56;4943517;28;20060;-82
2022/05/18 08:36:31;;;;;;;5.40;4.10;;;;;;;31.28;21.10;102027.50;4951061;28;20113;-79
2022/05/18 08:38:57;;;;;;;5.15;3.72;;;;;;;31.97;20.85;102017.03;4977785;28;20489;-78
2022/05/18 08:41:28;;;;;;;7.22;4.65;;;;;;;32.18;20.30;102024.50;4960937;28;20104;-81
2022/05/18 08:43:59;;;;;;;9.93;4.10;;;;;;;32.26;20.74;102023.63;4989327;28;20048;-77
2022/05/18 08:46:52;;;;;;;7.90;4.50;;;;;;;32.49;21.24;102031.78;5002774;28;20034;-76
2022/05/18 08:49:51;;;;;;;5.68;3.00;;;;;;;33.56;19.76;102023.53;5001328;28;20046;-78
2022/05/18 08:52:53;;;;;;;5.82;4.28;;;;;;;32.97;19.69;102035.16;4961165;28;20043;-77
2022/05/18 08:56:12;;;;;;;4.35;3.40;;;;;;;33.63;19.78;102024.47;5003121;28;20061;-78
2022/05/18 08:58:43;;;;;;;8.32;4.43;;;;;;;33.72;19.83;102034.19;4964150;28;20039;-80
2022/05/18 09:01:21;;;;;;;7.45;4.65;;;;;;;32.48;19.95;102030.13;4983271;28;20065;-80
2022/05/18 09:04:06;;;;;;;5.78;4.68;;;;;;;31.23;21.56;102024.50;4979487;28;20236;-75
2022/05/18 09:06:37;;;;;;;7.85;5.03;;;;;;;29.92;23.02;102025.94;4968016;28;20048;-82
2022/05/18 09:12:36;;;;;;;6.37;5.63;;;;;;;30.23;23.21;102022.69;4986326;28;20050;-81
2022/05/18 09:15:03;;;;;;;7.65;3.58;;;;;;;31.81;22.19;102023.31;4966925;28;20053;-78
2022/05/18 09:17:40;;;;;;;5.60;4.20;;;;;;;32.02;21.77;102026.28;4985919;28;20076;-79
2022/05/18 09:20:29;;;;;;;5.75;4.85;;;;;;;30.81;22.76;102020.94;4999880;28;20066;-76
2022/05/18 09:23:33;;;;;;;12.35;5.35;;;;;;;29.97;23.96;102017.34;4966891;28;20074;-79
2022/05/18 09:26:22;;;;;;;6.47;4.93;;;;;;;29.70;24.94;102026.50;4965531;28;20121;-77
2022/05/18 09:29:07;;;;;;;10.35;4.82;;;;;;;29.60;25.64;102020.41;4986225;28;20039;-76
2022/05/18 09:31:51;;;;;;;7.13;4.65;;;;;;;29.28;25.06;102022.72;4968147;28;20034;-82
2022/05/18 09:34:42;;;;;;;6.57;4.97;;;;;;;28.51;25.21;102018.81;5000704;28;20058;-78
2022/05/18 09:37:08;;;;;;;;;;;;;;;28.32;26.97;102025.16;5000803;28;20037;-78
2022/05/18 09:39:40;;;;;;;5.07;4.05;;;;;;;28.20;26.76;102027.25;4968296;28;20091;-81
2022/05/18 09:42:14;;;;;;;8.93;4.13;;;;;;;28.21;27.22;102020.88;4981428;28;20165;-81
2022/05/18 09:44:39;;;;;;;10.00;5.05;;;;;;;28.14;25.60;102022.47;4984004;28;20134;-81
2022/05/18 09:47:06;;;;;;;9.40;5.45;;;;;;;27.25;27.35;102020.19;4964401;28;20124;-77
2022/05/18 09:49:39;;;;;;;16.73;5.85;;;;;;;27.07;27.81;102028.97;4981423;28;20515;-79
2022/05/18 09:52:05;;;;;;;12.43;5.75;;;;;;;27.35;28.41;102015.66;4964091;28;20045;-76
2022/05/18 09:54:33;;;;;;;6.97;4.15;;;;;;;28.71;25.47;102019.56;4964026;28;20520;-78
2022/05/18 09:57:12;;;;;;;9.43;4.80;;;;;;;28.47;25.54;102025.50;4981464;28;20060;-81
2022/05/18 09:59:44;;;;;;;7.75;4.15;;;;;;;27.87;25.73;102021.44;4983223;28;20069;-80
2022/05/18 10:08:00;;;;;;;5.72;3.97;;;;;;;27.75;26.14;102016.41;4982210;28;20100;-80
2022/05/18 10:10:30;;;;;;;5.13;3.20;;;;;;;28.13;25.60;102023.47;4966285;28;20642;-80
2022/05/18 10:12:58;;;;;;;5.50;2.60;;;;;;;29.20;24.42;102013.75;4964197;28;20042;-80
2022/05/18 10:15:40;;;;;;;5.90;3.65;;;;;;;28.99;24.13;102030.19;4980658;28;20042;-82
2022/05/18 10:18:23;;;;;;;5.60;3.22;;;;;;;29.59;23.81;102030.28;4981647;28;20058;-80
2022/05/18 10:21:13;;;;;;;4.63;2.28;;;;;;;30.35;22.99;102021.34;4999020;28;20036;-81
2022/05/18 10:23:55;;;;;;;5.45;2.97;;;;;;;30.43;22.21;102017.03;4981974;28;20144;-80
2022/05/18 10:26:36;;;;;;;3.42;2.97;;;;;;;30.33;22.86;102018.00;4998627;28;20100;-79
2022/05/18 10:29:23;;;;;;;4.73;2.90;;;;;;;30.71;22.18;102014.84;4963817;28;20054;-77
2022/05/18 10:32:09;;;;;;;3.30;2.60;;;;;;;30.90;20.11;102016.41;4970802;28;20054;-79
2022/05/18 10:34:46;;;;;;;5.38;3.00;;;;;;;29.80;21.71;102021.84;4983099;28;20042;-79
2022/05/18 10:37:23;;;;;;;4.03;3.05;;;;;;;29.84;21.85;102022.34;4963802;28;20592;-80
2022/05/18 10:39:49;;;;;;;5.88;2.60;;;;;;;30.46;21.84;102027.47;4999840;28;20023;-78
2022/05/18 10:42:39;;;;;;;4.57;2.10;;;;;;;30.24;23.20;102018.13;4983143;28;20370;-80
2022/05/18 10:45:32;;;;;;;3.88;3.13;;;;;;;29.82;22.35;102024.38;4967621;28;20034;-78
2022/05/18 10:48:16;;;;;;;3.42;2.30;;;;;;;30.89;22.07;102029.06;4964296;28;20104;-80
2022/05/18 10:50:43;;;;;;;3.20;1.63;;;;;;;30.94;21.26;102021.28;4948157;28;20129;-80
2022/05/18 10:53:15;;;;;;;2.75;1.17;;;;;;;30.03;20.97;102027.50;4956144;28;20039;-80
2022/05/18 10:55:56;;;;;;;3.00;1.42;;;;;;;30.00;21.40;102033.22;4981085;28;20274;-74
2022/05/18 10:58:38;;;;;;;2.92;1.38;;;;;;;30.46;20.63;102027.47;4980872;28;20480;-77
2022/05/18 11:01:26;;;;;;;3.22;1.42;;;;;;;29.69;21.02;102022.97;4958405;28;20072;-80
2022/05/18 11:03:55;;;;;;;10.90;2.30;;;;;;;30.21;20.81;102023.88;4977076;28;20045;-78
2022/05/18 11:06:29;;;;;;;2.13;1.38;;;;;;;29.64;21.00;102029.84;4962058;28;20038;-80
2022/05/18 11:09:06;;;;;;;5.50;1.25;;;;;;;29.30;21.39;102026.09;4966066;28;20042;-79
2022/05/18 11:11:49;;;;;;;4.95;1.15;;;;;;;29.57;20.62;102022.41;4999831;28;20346;-80
2022/05/18 11:14:26;;;;;;;6.05;0.80;;;;;;;30.41;20.85;102021.72;4963464;28;20117;-78
2022/05/18 11:17:21;;;;;;;4.68;1.38;;;;;;;30.04;20.49;102017.56;4966323;28;20034;-79
2022/05/18 11:20:10;;;;;;;3.50;1.17;;;;;;;30.86;21.21;102015.88;4982992;28;20101;-79
2022/05/18 11:23:06;;;;;;;3.35;1.15;;;;;;;31.73;20.27;102015.25;4969320;28;20112;-78
2022/05/18 11:25:55;;;;;;;1.73;1.20;;;;;;;31.17;19.72;102009.81;4979525;28;20010;-81
2022/05/18 11:28:39;;;;;;;2.47;0.68;;;;;;;30.87;20.06;102014.00;4962176;28;20044;-79
2022/05/18 11:31:33;;;;;;;3.17;0.70;;;;;;;31.65;19.76;102013.44;4954118;28;20154;-81
2022/05/18 11:34:55;;;;;;;4.18;0.75;;;;;;;31.59;19.13;102006.00;4957841;28;20046;-79
2022/05/18 11:37:58;;;;;;;1.48;0.65;;;;;;;30.93;19.51;102007.94;4948484;28;20302;-77
2022/05/18 11:40:49;;;;;;;3.92;0.70;;;;;;;31.24;18.76;101999.16;4935499;28;20070;-78
2022/05/18 11:43:45;;;;;;;5.63;0.70;;;;;;;31.68;19.01;102002.25;4958559;28;20107;-76
2022/05/18 11:46:38;;;;;;;2.83;0.63;;;;;;;31.66;16.60;101998.06;4961793;28;20682;-75
2022/05/18 11:49:28;;;;;;;4.30;0.40;;;;;;;31.36;18.40;101998.63;4975308;28;20069;-76
2022/05/18 11:51:57;;;;;;;1.45;0.40;;;;;;;31.60;18.54;101999.59;4975823;28;20053;-79
2022/05/18 11:54:50;;;;;;;3.72;1.02;;;;;;;31.54;17.51;101993.03;4956817;28;20084;-79
2022/05/18 11:57:55;;;;;;;1.58;0.30;;;;;;;31.17;17.38;101994.44;4957411;28;20018;-78